createdAt,value
2023-10-08T00:02:31.296Z,2.70
2023-10-08T00:05:40.476Z,2.60
2023-10-08T00:08:42.524Z,3.30
2023-10-08T00:11:45.172Z,3.20
2023-10-08T00:14:50.062Z,3.00
2023-10-08T00:17:55.192Z,3.40
2023-10-08T00:21:07.392Z,3.20
2023-10-08T00:24:09.778Z,2.90
2023-10-08T00:27:15.298Z,3.70
2023-10-08T00:30:20.166Z,3.60
2023-10-08T00:33:22.369Z,3.70
2023-10-08T00:36:24.914Z,3.50
2023-10-08T00:39:27.572Z,3.10
2023-10-08T00:42:30.858Z,3.40
2023-10-08T00:45:32.806Z,2.70
2023-10-08T00:48:36.649Z,3.40
2023-10-08T00:51:41.740Z,3.40
2023-10-08T00:54:49.881Z,3.00
2023-10-08T00:57:58.441Z,3.30
2023-10-08T01:01:01.214Z,2.70
2023-10-08T01:04:12.295Z,2.60
2023-10-08T01:07:18.924Z,3.10
2023-10-08T01:10:21.354Z,2.30
2023-10-08T01:13:23.523Z,2.40
2023-10-08T01:16:27.786Z,2.10
2023-10-08T01:19:32.065Z,2.60
2023-10-08T01:22:33.949Z,2.00
2023-10-08T01:25:38.161Z,1.80
2023-10-08T01:28:41.036Z,2.60
2023-10-08T01:31:43.057Z,2.00
2023-10-08T01:34:45.842Z,1.80
2023-10-08T01:37:48.894Z,2.00
2023-10-08T01:40:51.793Z,1.70
2023-10-08T01:43:53.748Z,1.40
2023-10-08T01:46:58.876Z,1.70
2023-10-08T01:53:10.517Z,2.10
2023-10-08T01:56:12.594Z,1.80
2023-10-08T01:59:16.326Z,2.20
2023-10-08T02:02:18.323Z,2.10
2023-10-08T02:05:21.581Z,1.90
2023-10-08T02:08:24.439Z,2.10
2023-10-08T02:11:28.201Z,2.60
2023-10-08T02:14:32.142Z,2.30
2023-10-08T02:17:35.275Z,2.80
2023-10-08T02:20:40.200Z,2.80
2023-10-08T02:23:44.223Z,2.80
2023-10-08T02:26:46.151Z,2.90
2023-10-08T02:29:48.185Z,2.80
2023-10-08T02:32:50.382Z,2.90
2023-10-08T02:35:54.073Z,3.00
2023-10-08T02:38:56.096Z,2.70
2023-10-08T02:42:00.357Z,3.70
2023-10-08T02:45:04.255Z,2.50
2023-10-08T02:48:12.491Z,2.70
2023-10-08T02:51:14.826Z,3.50
2023-10-08T02:54:31.834Z,2.80
2023-10-08T02:57:33.725Z,3.80
2023-10-08T03:00:35.972Z,3.20
2023-10-08T03:03:42.652Z,2.90
2023-10-08T03:06:49.880Z,3.60
2023-10-08T03:10:03.952Z,2.80
2023-10-08T03:13:06.972Z,3.10
2023-10-08T03:16:13.800Z,3.20
2023-10-08T03:19:19.941Z,3.70
2023-10-08T03:22:22.001Z,3.50
2023-10-08T03:25:25.132Z,3.00
2023-10-08T03:28:35.354Z,3.80
2023-10-08T03:31:49.482Z,3.20
2023-10-08T03:34:55.062Z,3.50
2023-10-08T03:38:16.988Z,3.70
2023-10-08T03:41:27.993Z,4.20
2023-10-08T03:44:30.248Z,3.90
2023-10-08T03:47:32.889Z,4.00
2023-10-08T03:50:43.060Z,3.70
2023-10-08T03:53:59.083Z,4.40
2023-10-08T03:57:01.569Z,4.30
2023-10-08T04:00:08.355Z,3.90
2023-10-08T04:03:24.107Z,3.50
2023-10-08T04:06:38.964Z,3.70
2023-10-08T04:09:42.824Z,4.40
2023-10-08T04:12:45.590Z,3.90
2023-10-08T04:15:47.690Z,3.80
2023-10-08T04:18:50.946Z,4.00
2023-10-08T04:21:56.775Z,3.50
2023-10-08T04:25:03.327Z,2.90
2023-10-08T04:28:06.757Z,3.40
2023-10-08T04:31:17.732Z,3.30
2023-10-08T04:34:22.840Z,3.30
2023-10-08T04:37:32.697Z,3.20
2023-10-08T04:40:48.452Z,2.90
2023-10-08T04:43:50.674Z,2.40
2023-10-08T04:46:53.492Z,2.60
2023-10-08T04:49:57.248Z,2.20
2023-10-08T04:52:59.097Z,2.00
2023-10-08T04:56:14.662Z,2.00
2023-10-08T04:59:23.239Z,2.30
2023-10-08T05:02:49.879Z,1.70
2023-10-08T05:06:06.931Z,1.40
2023-10-08T05:09:22.678Z,1.30
2023-10-08T05:12:33.460Z,1.10
2023-10-08T05:15:42.187Z,1.10
2023-10-08T05:19:14.662Z,1.20
2023-10-08T05:22:20.681Z,1.30
2023-10-08T05:25:35.711Z,1.00
2023-10-08T05:28:57.683Z,1.10
2023-10-08T05:32:25.900Z,0.90
2023-10-08T05:35:42.788Z,1.10
2023-10-08T05:39:01.139Z,1.00
2023-10-08T05:42:26.078Z,0.90
2023-10-08T05:45:33.853Z,0.90
2023-10-08T05:48:45.744Z,1.50
2023-10-08T05:51:47.928Z,1.30
2023-10-08T05:55:14.539Z,0.90
2023-10-08T05:58:19.100Z,1.10
2023-10-08T06:05:04.892Z,0.60
2023-10-08T06:08:15.415Z,0.90
2023-10-08T06:15:07.812Z,0.70
2023-10-08T06:18:09.943Z,1.20
2023-10-08T06:21:12.389Z,1.00
2023-10-08T06:24:17.556Z,1.30
2023-10-08T06:27:20.494Z,1.20
2023-10-08T06:30:25.218Z,1.20
2023-10-08T06:33:33.985Z,0.90
2023-10-08T06:36:36.334Z,0.80
2023-10-08T06:39:47.830Z,1.10
2023-10-08T06:42:52.127Z,0.90
2023-10-08T06:45:58.420Z,1.80
2023-10-08T06:49:03.170Z,1.70
2023-10-08T06:52:07.866Z,1.30
2023-10-08T06:55:13.539Z,0.90
2023-10-08T06:58:15.686Z,1.00
2023-10-08T07:01:25.412Z,0.70
2023-10-08T07:04:27.738Z,0.80
2023-10-08T07:07:32.550Z,1.20
2023-10-08T07:13:37.719Z,0.90
2023-10-08T07:16:42.511Z,0.80
2023-10-08T07:19:47.791Z,0.80
2023-10-08T07:22:54.627Z,0.80
2023-10-08T07:26:11.407Z,1.40
2023-10-08T07:29:17.664Z,0.90
2023-10-08T07:32:19.589Z,0.70
2023-10-08T07:35:21.573Z,0.70
2023-10-08T07:38:28.092Z,0.90
2023-10-08T07:41:30.237Z,0.70
2023-10-08T07:44:36.166Z,1.00
2023-10-08T07:47:39.020Z,0.50
2023-10-08T07:50:42.531Z,0.80
2023-10-08T07:53:46.582Z,0.70
2023-10-08T07:57:00.068Z,0.60
2023-10-08T08:00:18.717Z,0.80
2023-10-08T08:03:21.589Z,0.60
2023-10-08T08:06:23.866Z,1.00
2023-10-08T08:09:26.975Z,0.80
2023-10-08T08:12:29.791Z,0.70
2023-10-08T08:15:36.647Z,0.80
2023-10-08T08:18:38.757Z,0.60
2023-10-08T08:21:45.648Z,0.60
2023-10-08T08:25:05.910Z,0.70
2023-10-08T08:28:17.421Z,0.80
2023-10-08T08:31:20.173Z,0.90
2023-10-08T08:34:22.180Z,0.70
2023-10-08T08:37:26.249Z,0.70
2023-10-08T08:40:28.114Z,0.60
2023-10-08T08:43:34.313Z,1.00
2023-10-08T08:46:38.396Z,0.90
2023-10-08T08:49:43.115Z,1.10
2023-10-08T08:52:48.747Z,0.60
2023-10-08T08:55:55.028Z,1.00
2023-10-08T08:59:00.128Z,0.80
2023-10-08T09:02:04.568Z,0.80
2023-10-08T09:05:25.987Z,0.70
2023-10-08T09:08:38.041Z,0.70
2023-10-08T09:11:43.524Z,0.50
2023-10-08T09:14:46.837Z,0.40
2023-10-08T09:17:49.843Z,0.80
2023-10-08T09:20:51.954Z,0.70
2023-10-08T09:23:54.986Z,0.70
2023-10-08T09:26:58.694Z,0.90
2023-10-08T09:30:08.983Z,1.00
2023-10-08T09:33:13.100Z,0.80
2023-10-08T09:36:16.344Z,0.60
2023-10-08T09:39:23.856Z,0.80
2023-10-08T09:42:26.309Z,1.10
2023-10-08T09:45:30.450Z,0.60
2023-10-08T09:48:38.294Z,0.90
2023-10-08T09:51:40.791Z,0.90
2023-10-08T09:54:59.969Z,0.50
2023-10-08T09:58:02.260Z,0.60
2023-10-08T10:01:04.956Z,0.80
2023-10-08T10:04:11.022Z,0.50
2023-10-08T10:07:17.393Z,0.80
2023-10-08T10:10:33.843Z,0.60
2023-10-08T10:13:45.004Z,0.80
2023-10-08T10:16:49.534Z,0.90
2023-10-08T10:20:01.066Z,0.60
2023-10-08T10:23:43.457Z,0.50
2023-10-08T10:26:49.861Z,1.00
2023-10-08T10:29:53.288Z,0.90
2023-10-08T10:33:00.592Z,0.70
2023-10-08T10:36:05.730Z,0.60
2023-10-08T10:39:16.505Z,1.10
2023-10-08T10:42:21.826Z,0.70
2023-10-08T10:45:40.847Z,0.90
2023-10-08T10:48:48.764Z,0.80
2023-10-08T10:51:57.958Z,0.70
2023-10-08T10:55:23.301Z,0.70
2023-10-08T10:58:26.563Z,0.80
2023-10-08T11:01:45.033Z,0.60
2023-10-08T11:04:48.121Z,0.60
2023-10-08T11:07:50.160Z,0.60
2023-10-08T11:10:53.813Z,0.60
2023-10-08T11:14:00.653Z,0.70
2023-10-08T11:17:23.300Z,0.50
2023-10-08T11:20:25.997Z,0.40
2023-10-08T11:23:42.045Z,0.50
2023-10-08T11:27:02.122Z,0.70
2023-10-08T11:30:11.578Z,0.60
2023-10-08T11:33:16.064Z,0.50
2023-10-08T11:36:21.005Z,0.60
2023-10-08T11:39:23.982Z,0.70
2023-10-08T11:42:33.501Z,0.50
2023-10-08T11:45:48.532Z,0.40
2023-10-08T11:48:51.100Z,0.80
2023-10-08T11:51:52.985Z,0.80
2023-10-08T11:54:55.000Z,0.60
2023-10-08T11:57:58.519Z,0.60
2023-10-08T12:01:04.111Z,0.80
2023-10-08T12:04:13.442Z,0.70
2023-10-08T12:07:17.861Z,2.10
2023-10-08T12:10:23.576Z,0.50
2023-10-08T12:13:25.567Z,0.90
2023-10-08T12:16:30.506Z,0.90
2023-10-08T12:19:32.885Z,0.50
2023-10-08T12:22:37.582Z,0.90
2023-10-08T12:25:39.874Z,0.60
2023-10-08T12:28:51.553Z,0.40
2023-10-08T12:31:53.980Z,0.60
2023-10-08T12:34:56.259Z,0.80
2023-10-08T12:37:58.303Z,0.80
2023-10-08T12:41:08.579Z,0.60
2023-10-08T12:44:12.137Z,0.60
2023-10-08T12:47:14.175Z,0.80
2023-10-08T12:50:23.720Z,0.70
2023-10-08T12:53:27.612Z,0.70
2023-10-08T12:56:36.311Z,0.80
2023-10-08T12:59:39.613Z,0.50
2023-10-08T13:02:42.874Z,0.50
2023-10-08T13:05:45.103Z,1.20
2023-10-08T13:08:47.263Z,0.70
2023-10-08T13:11:50.657Z,0.80
2023-10-08T13:14:52.689Z,0.70
2023-10-08T13:17:55.064Z,1.20
2023-10-08T13:20:58.386Z,0.70
2023-10-08T13:24:00.609Z,1.10
2023-10-08T13:27:06.107Z,0.60
2023-10-08T13:30:11.789Z,1.10
2023-10-08T13:33:13.735Z,0.40
2023-10-08T13:36:19.417Z,0.70
2023-10-08T13:39:21.942Z,0.80
2023-10-08T13:42:24.650Z,0.70
2023-10-08T13:45:27.301Z,0.80
2023-10-08T13:48:29.478Z,0.70
2023-10-08T13:51:33.779Z,0.80
2023-10-08T13:54:39.638Z,0.80
2023-10-08T13:57:45.087Z,0.90
2023-10-08T14:00:48.888Z,0.80
2023-10-08T14:03:56.652Z,0.60
2023-10-08T14:06:59.134Z,0.80
2023-10-08T14:10:06.045Z,0.90
2023-10-08T14:13:08.049Z,0.80
2023-10-08T14:16:11.808Z,0.80
2023-10-08T14:19:15.082Z,0.90
2023-10-08T14:22:17.827Z,1.00
2023-10-08T14:25:24.642Z,0.80
2023-10-08T14:28:41.015Z,0.90
2023-10-08T14:31:45.083Z,0.80
2023-10-08T14:34:47.001Z,0.90
2023-10-08T14:38:07.788Z,0.90
2023-10-08T14:41:28.402Z,0.50
2023-10-08T14:44:30.792Z,0.70
2023-10-08T14:47:32.719Z,0.70
2023-10-08T14:50:34.940Z,0.70
2023-10-08T14:53:39.127Z,0.80
2023-10-08T14:56:41.254Z,0.90
2023-10-08T14:59:43.403Z,0.80
2023-10-08T15:02:45.433Z,1.20
2023-10-08T15:05:49.069Z,1.10
2023-10-08T15:08:53.003Z,0.70
2023-10-08T15:11:55.011Z,0.90
2023-10-08T15:14:57.248Z,0.70
2023-10-08T15:17:59.567Z,1.00
2023-10-08T15:21:04.704Z,0.70
2023-10-08T15:24:12.400Z,1.10
2023-10-08T15:27:14.497Z,1.00
2023-10-08T15:30:21.346Z,0.80
2023-10-08T15:33:26.824Z,0.70
2023-10-08T15:36:29.091Z,1.20
2023-10-08T15:39:31.045Z,0.80
2023-10-08T15:42:37.420Z,1.00
2023-10-08T15:45:39.324Z,0.90
2023-10-08T15:48:41.414Z,0.70
2023-10-08T15:51:43.768Z,0.80
2023-10-08T15:54:46.377Z,1.00
2023-10-08T15:57:48.626Z,1.40
2023-10-08T16:00:50.504Z,0.70
2023-10-08T16:03:52.764Z,0.70
2023-10-08T16:06:55.062Z,1.40
2023-10-08T16:09:56.941Z,1.30
2023-10-08T16:12:58.852Z,1.30
2023-10-08T16:16:00.883Z,1.60
2023-10-08T16:19:03.118Z,1.80
2023-10-08T16:22:05.144Z,2.10
2023-10-08T16:25:08.002Z,1.60
2023-10-08T16:28:11.942Z,1.70
2023-10-08T16:31:14.321Z,2.00
2023-10-08T16:34:16.391Z,1.50
2023-10-08T16:37:22.255Z,1.50
2023-10-08T16:40:24.485Z,1.40
2023-10-08T16:43:26.470Z,1.90
2023-10-08T16:46:28.377Z,1.60
2023-10-08T16:49:30.687Z,1.30
2023-10-08T16:52:32.801Z,1.50
2023-10-08T16:55:34.953Z,1.40
2023-10-08T16:58:37.100Z,1.80
2023-10-08T17:01:39.001Z,1.50
2023-10-08T17:04:41.410Z,1.40
2023-10-08T17:07:47.109Z,1.70
2023-10-08T17:10:49.772Z,1.60
2023-10-08T17:13:52.232Z,2.10
2023-10-08T17:16:54.675Z,2.60
2023-10-08T17:19:57.124Z,3.70
2023-10-08T17:23:00.184Z,3.20
2023-10-08T17:26:02.593Z,3.00
2023-10-08T17:29:08.820Z,3.00
2023-10-08T17:32:11.378Z,2.10
2023-10-08T17:35:16.878Z,3.20
2023-10-08T17:38:20.342Z,3.20
2023-10-08T17:41:22.761Z,2.60
2023-10-08T17:44:27.622Z,3.80
2023-10-08T17:47:30.357Z,4.20
2023-10-08T17:50:36.763Z,5.30
2023-10-08T17:53:39.884Z,3.00
2023-10-08T17:56:42.549Z,3.00
2023-10-08T17:59:46.913Z,2.30
2023-10-08T18:02:50.858Z,2.20
2023-10-08T18:05:54.367Z,2.60
2023-10-08T18:08:57.007Z,2.20
2023-10-08T18:12:01.010Z,2.30
2023-10-08T18:15:04.974Z,2.20
2023-10-08T18:18:10.976Z,2.00
2023-10-08T18:21:17.279Z,1.80
2023-10-08T18:24:22.312Z,1.40
2023-10-08T18:27:24.923Z,1.40
2023-10-08T18:30:27.807Z,1.40
2023-10-08T18:33:30.728Z,1.90
2023-10-08T18:36:36.179Z,1.80
2023-10-08T18:39:38.671Z,2.00
2023-10-08T18:42:47.508Z,1.50
2023-10-08T18:45:50.405Z,1.80
2023-10-08T18:48:53.013Z,2.20
2023-10-08T18:51:55.894Z,2.10
2023-10-08T18:54:59.858Z,1.80
2023-10-08T18:58:04.805Z,2.40
2023-10-08T19:01:07.702Z,2.30
2023-10-08T19:04:10.631Z,2.20
2023-10-08T19:07:14.497Z,1.70
2023-10-08T19:10:17.086Z,1.80
2023-10-08T19:13:20.012Z,2.20
2023-10-08T19:16:25.429Z,3.10
2023-10-08T19:19:30.525Z,1.90
2023-10-08T19:22:33.045Z,2.00
2023-10-08T19:25:35.732Z,1.90
2023-10-08T19:28:39.144Z,2.10
2023-10-08T19:31:41.176Z,2.40
2023-10-08T19:34:45.009Z,2.00
2023-10-08T19:37:47.403Z,2.80
2023-10-08T19:40:49.287Z,2.40
2023-10-08T19:43:51.489Z,3.10
2023-10-08T19:46:53.522Z,2.90
2023-10-08T19:49:55.412Z,2.20
2023-10-08T19:52:58.043Z,2.10
2023-10-08T19:56:00.827Z,2.10
2023-10-08T19:59:03.321Z,2.40
2023-10-08T20:02:06.405Z,2.70
2023-10-08T20:05:12.686Z,2.50
2023-10-08T20:08:16.179Z,2.70
2023-10-08T20:11:18.412Z,2.70
2023-10-08T20:14:20.732Z,3.00
2023-10-08T20:17:22.659Z,2.50
2023-10-08T20:20:30.412Z,2.70
2023-10-08T20:23:36.146Z,3.00
2023-10-08T20:26:38.657Z,3.30
2023-10-08T20:29:40.551Z,2.80
2023-10-08T20:32:46.393Z,3.30
2023-10-08T20:35:52.616Z,3.00
2023-10-08T20:38:54.659Z,3.40
2023-10-08T20:41:57.299Z,3.60
2023-10-08T20:44:59.685Z,3.40
2023-10-08T20:48:01.989Z,4.60
2023-10-08T20:51:04.087Z,3.70
2023-10-08T20:54:06.427Z,3.70
2023-10-08T20:57:10.530Z,4.50
2023-10-08T21:00:29.187Z,4.20
2023-10-08T21:03:31.980Z,3.70
2023-10-08T21:06:34.169Z,3.50
2023-10-08T21:09:36.348Z,3.60
2023-10-08T21:12:42.832Z,3.50
2023-10-08T21:15:45.484Z,4.20
2023-10-08T21:18:49.807Z,3.30
2023-10-08T21:21:53.277Z,3.70
2023-10-08T21:24:55.183Z,4.00
2023-10-08T21:27:58.292Z,3.10
2023-10-08T21:31:07.521Z,3.20
2023-10-08T21:34:09.863Z,3.30
2023-10-08T21:37:11.914Z,3.40
2023-10-08T21:40:16.300Z,3.20
2023-10-08T21:43:18.157Z,3.20
2023-10-08T21:46:22.459Z,3.20
2023-10-08T21:49:24.455Z,3.40
2023-10-08T21:52:28.102Z,3.20
2023-10-08T21:55:30.399Z,2.80
2023-10-08T21:58:34.089Z,2.70
2023-10-08T22:01:38.638Z,3.00
2023-10-08T22:07:44.589Z,3.20
2023-10-08T22:10:46.615Z,3.10
2023-10-08T22:13:49.221Z,2.80
2023-10-08T22:16:52.676Z,2.90
2023-10-08T22:19:56.397Z,3.50
2023-10-08T22:22:58.358Z,3.50
2023-10-08T22:26:00.307Z,3.70
2023-10-08T22:29:03.275Z,3.00
2023-10-08T22:32:08.749Z,4.00
2023-10-08T22:35:16.526Z,4.40
2023-10-08T22:38:18.454Z,4.90
2023-10-08T22:41:23.231Z,4.70
2023-10-08T22:44:29.693Z,3.70
2023-10-08T22:47:33.226Z,3.30
2023-10-08T22:50:42.126Z,3.00
2023-10-08T22:53:44.449Z,3.00
2023-10-08T22:56:46.550Z,3.70
2023-10-08T22:59:49.612Z,3.10
2023-10-08T23:02:51.917Z,2.80
2023-10-08T23:05:54.128Z,3.20
2023-10-08T23:08:59.815Z,3.80
2023-10-08T23:12:01.965Z,3.30
2023-10-08T23:15:05.064Z,2.90
2023-10-08T23:18:08.206Z,3.00
2023-10-08T23:21:11.994Z,2.70
2023-10-08T23:24:15.467Z,2.50
2023-10-08T23:27:18.184Z,2.60
2023-10-08T23:30:20.595Z,3.70
2023-10-08T23:33:23.498Z,2.90
2023-10-08T23:36:44.289Z,2.70
2023-10-08T23:39:46.163Z,3.30
2023-10-08T23:42:51.634Z,2.70
2023-10-08T23:46:00.498Z,3.10
2023-10-08T23:49:16.413Z,3.00
2023-10-08T23:52:22.736Z,2.90
2023-10-08T23:55:25.974Z,3.60
2023-10-08T23:58:31.701Z,2.80
